Time;durP1;ratioP1;P1;durP2;ratioP2;P2;SDS_P1;SDS_P2;PMS_P1;PMS_P2;Temp;Humidity;BMP_temperature;BMP_pressure;BME280_temperature;BME280_humidity;BME280_pressure;Samples;Min_cycle;Max_cycle;Signal;HPM_P1;HPM_P2
2021/07/01 00:02:16;;;;;;;15.45;7.70;;;;;;;18.42;77.66;98265.06;4942431;28;20142;-66
2021/07/01 00:04:42;;;;;;;14.77;7.50;;;;;;;18.39;78.00;98265.00;4942366;29;20103;-66
2021/07/01 00:07:11;;;;;;;15.27;7.72;;;;;;;18.41;77.90;98270.97;4941642;28;20077;-68
2021/07/01 00:09:37;;;;;;;16.17;8.13;;;;;;;18.43;77.86;98269.44;4941421;29;20055;-68
2021/07/01 00:12:04;;;;;;;17.73;8.02;;;;;;;18.45;77.92;98262.72;4909261;29;20417;-67
2021/07/01 00:14:30;;;;;;;20.70;9.82;;;;;;;18.35;78.32;98264.13;4944536;28;20055;-67
2021/07/01 00:16:56;;;;;;;19.40;10.35;;;;;;;18.34;78.15;98266.09;4945241;29;20045;-66
2021/07/01 00:19:27;;;;;;;23.65;11.98;;;;;;;17.96;79.96;98259.34;4913205;29;20043;-67
2021/07/01 00:21:53;;;;;;;16.33;9.77;;;;;;;17.87;80.14;98265.09;4946156;28;20508;-67
2021/07/01 00:24:22;;;;;;;17.13;8.77;;;;;;;17.70;81.06;98260.75;4945689;29;20051;-67
2021/07/01 00:26:51;;;;;;;19.33;10.88;;;;;;;17.73;81.35;98262.81;4913435;29;20053;-67
2021/07/01 00:29:20;;;;;;;18.55;9.75;;;;;;;17.50;82.37;98257.94;4945511;29;20058;-67
2021/07/01 00:31:46;;;;;;;17.50;10.02;;;;;;;17.57;82.49;98265.59;4945895;28;20052;-66
2021/07/01 00:34:12;;;;;;;23.27;10.68;;;;;;;17.67;82.05;98262.28;4945439;29;20062;-67
2021/07/01 00:36:41;;;;;;;19.55;10.18;;;;;;;17.64;81.53;98256.69;4927746;29;20062;-68
2021/07/01 00:39:07;;;;;;;18.27;8.85;;;;;;;17.50;82.32;98254.41;4945473;29;20058;-67
2021/07/01 00:41:36;;;;;;;18.02;9.18;;;;;;;17.42;82.88;98256.19;4945791;28;20080;-67
2021/07/01 00:44:03;;;;;;;20.67;9.68;;;;;;;17.48;82.89;98256.69;4927330;29;20047;-66
2021/07/01 00:46:30;;;;;;;13.32;7.60;;;;;;;17.31;83.25;98260.66;4935164;29;20069;-67
2021/07/01 00:49:00;;;;;;;19.50;9.55;;;;;;;17.43;82.66;98255.03;4928481;29;20047;-67
2021/07/01 00:51:29;;;;;;;20.88;9.82;;;;;;;17.49;82.79;98255.56;4911834;29;20505;-67
2021/07/01 00:54:01;;;;;;;22.65;9.30;;;;;;;17.50;82.98;98257.94;4927979;29;20056;-67
2021/07/01 00:56:28;;;;;;;15.48;8.80;;;;;;;17.52;82.90;98255.63;4945609;29;20078;-67
2021/07/01 00:58:55;;;;;;;17.42;8.23;;;;;;;17.46;82.86;98248.78;4927738;29;20047;-67
2021/07/01 01:01:26;;;;;;;19.13;9.55;;;;;;;17.38;83.34;98250.56;4928111;29;20079;-66
2021/07/01 01:03:52;;;;;;;14.57;8.48;;;;;;;17.30;83.83;98248.78;4945034;29;20047;-67
2021/07/01 01:06:22;;;;;;;18.63;8.73;;;;;;;17.29;83.79;98252.72;4944908;29;20053;-67
2021/07/01 01:08:49;;;;;;;15.50;8.40;;;;;;;17.43;83.58;98250.28;4911859;29;20658;-67
2021/07/01 01:11:24;;;;;;;19.05;8.40;;;;;;;17.15;84.60;98239.38;4944600;29;20055;-66
2021/07/01 01:14:13;;;;;;;18.15;9.48;;;;;;;17.18;84.72;98252.44;4927737;29;20048;-68
2021/07/01 01:16:58;;;;;;;24.65;14.77;;;;;;;17.11;84.80;98244.78;4945139;28;20498;-67
2021/07/01 01:19:27;;;;;;;38.08;19.85;;;;;;;17.18;84.62;98252.44;4928012;29;20048;-67
2021/07/01 01:21:55;;;;;;;48.75;23.25;;;;;;;17.17;84.83;98250.03;4926869;29;20142;-67
2021/07/01 01:24:24;;;;;;;64.85;33.97;;;;;;;17.12;85.55;98248.38;4942953;29;20594;-67
2021/07/01 01:26:54;;;;;;;46.05;26.75;;;;;;;17.13;86.40;98249.97;4926601;29;20059;-67
2021/07/01 01:32:51;;;;;;;40.35;22.10;;;;;;;16.99;87.01;98237.41;4944435;29;20611;-67
2021/07/01 01:35:19;;;;;;;45.50;24.45;;;;;;;16.99;87.32;98234.66;4944527;29;20146;-67
2021/07/01 01:37:47;;;;;;;33.83;19.27;;;;;;;16.97;87.27;98233.34;4926732;29;20588;-67
2021/07/01 01:40:16;;;;;;;28.75;15.85;;;;;;;16.96;87.60;98235.34;4943724;29;20063;-68
2021/07/01 01:42:42;;;;;;;24.15;13.57;;;;;;;16.77;88.27;98230.50;4927255;29;20508;-67
2021/07/01 01:45:12;;;;;;;26.33;13.00;;;;;;;16.90;88.10;98236.75;4935089;29;20047;-68
2021/07/01 01:47:38;;;;;;;24.70;13.60;;;;;;;16.87;88.13;98240.22;4927049;29;20535;-68
2021/07/01 01:50:07;;;;;;;27.55;16.38;;;;;;;16.83;88.45;98244.84;4926057;29;20095;-68
2021/07/01 01:52:34;;;;;;;24.30;15.20;;;;;;;16.83;88.45;98247.63;4911184;29;20047;-67
2021/07/01 01:55:10;;;;;;;24.25;13.52;;;;;;;16.74;88.69;98245.03;4943489;29;20521;-67
2021/07/01 01:57:36;;;;;;;23.30;12.32;;;;;;;16.82;88.79;98254.28;4925668;29;20062;-67
2021/07/01 02:00:07;;;;;;;19.85;11.73;;;;;;;16.78;89.09;98253.38;4942293;29;20057;-67
2021/07/01 02:02:52;;;;;;;16.88;10.52;;;;;;;16.80;88.63;98253.84;4944117;29;20059;-67
2021/07/01 02:05:38;;;;;;;15.88;8.75;;;;;;;16.84;88.62;98246.44;4942784;29;20106;-66
2021/07/01 02:08:08;;;;;;;15.65;9.55;;;;;;;16.78;88.14;98228.53;4943059;28;20529;-67
2021/07/01 02:10:40;;;;;;;15.20;8.82;;;;;;;16.87;88.14;98254.03;4910221;29;20078;-67
2021/07/01 02:13:10;;;;;;;14.30;8.25;;;;;;;16.86;88.45;98250.47;4943109;29;20048;-67
2021/07/01 02:15:42;;;;;;;15.93;8.05;;;;;;;17.04;87.86;98246.56;4925828;29;20058;-67
2021/07/01 02:18:13;;;;;;;;;;;;;;;16.99;87.78;98256.72;4933762;29;20055;-66
2021/07/01 02:20:42;;;;;;;12.65;7.18;;;;;;;16.91;87.95;98251.34;4942402;29;20567;-67
2021/07/01 02:23:09;;;;;;;13.63;7.57;;;;;;;16.89;88.18;98254.47;4925202;29;20049;-66
2021/07/01 02:25:46;;;;;;;16.20;7.03;;;;;;;16.91;88.14;98248.59;4926592;29;20661;-67
2021/07/01 02:28:21;;;;;;;14.43;8.23;;;;;;;17.02;87.90;98249.72;4927305;29;20059;-66
2021/07/01 02:31:22;;;;;;;13.80;8.43;;;;;;;17.15;87.34;98242.91;4942318;29;20520;-67
2021/07/01 02:33:49;;;;;;;16.75;8.90;;;;;;;17.14;86.79;98246.06;4924861;29;20564;-66
2021/07/01 02:36:19;;;;;;;14.10;7.50;;;;;;;17.07;86.79;98252.19;4933982;29;20094;-66
2021/07/01 02:39:07;;;;;;;14.73;7.57;;;;;;;17.22;86.54;98264.38;4943580;29;20145;-67
2021/07/01 02:41:39;;;;;;;18.15;7.03;;;;;;;17.40;86.10;98259.31;4926161;29;20047;-66
2021/07/01 02:44:09;;;;;;;13.25;6.43;;;;;;;17.31;86.14;98258.66;4926070;29;20047;-67
2021/07/01 02:47:10;;;;;;;19.42;6.13;;;;;;;17.52;85.21;98257.59;4943097;28;20047;-67
2021/07/01 02:49:39;;;;;;;26.65;5.90;;;;;;;17.66;84.46;98257.13;4910472;29;20138;-67
2021/07/01 02:52:18;;;;;;;9.18;5.15;;;;;;;17.86;83.69;98255.97;4910944;29;20210;-67
2021/07/01 02:54:47;;;;;;;11.60;4.93;;;;;;;17.71;83.56;98265.94;4942874;29;20058;-67
2021/07/01 02:57:15;;;;;;;10.20;4.75;;;;;;;17.71;83.65;98262.34;4943198;29;20086;-67
2021/07/01 02:59:53;;;;;;;9.88;4.30;;;;;;;17.69;83.62;98262.72;4926124;29;20058;-67
2021/07/01 03:02:21;;;;;;;9.73;4.72;;;;;;;17.59;84.53;98263.28;4899717;29;20063;-65
2021/07/01 03:05:10;;;;;;;10.07;4.72;;;;;;;17.48;84.60;98273.28;4925281;29;20405;-67
2021/07/01 03:07:36;;;;;;;10.07;4.38;;;;;;;17.36;85.13;98263.94;4925420;29;20052;-66
2021/07/01 03:10:04;;;;;;;8.52;4.13;;;;;;;17.46;84.89;98265.34;4933360;29;20050;-66
2021/07/01 03:12:34;;;;;;;14.93;4.60;;;;;;;17.53;84.87;98267.50;4909553;29;20512;-66
2021/07/01 03:15:00;;;;;;;10.88;3.78;;;;;;;17.39;85.06;98265.16;4909898;29;20059;-67
2021/07/01 03:17:26;;;;;;;16.05;4.05;;;;;;;17.30;85.13;98259.84;4939247;28;20592;-66
2021/07/01 03:19:56;;;;;;;15.05;7.28;;;;;;;17.44;84.94;98257.41;4942606;29;20051;-66
2021/07/01 03:22:40;;;;;;;26.23;14.98;;;;;;;17.37;85.18;98254.50;4942057;28;20052;-66
2021/07/01 03:25:07;;;;;;;36.97;21.75;;;;;;;17.56;84.75;98261.25;4941817;29;20428;-67
2021/07/01 03:27:38;;;;;;;12.50;6.88;;;;;;;17.54;84.50;98263.56;4925218;29;20485;-67
2021/07/01 03:30:06;;;;;;;18.42;8.00;;;;;;;17.64;84.18;98262.19;4925489;29;20453;-67
2021/07/01 03:32:33;;;;;;;28.17;14.60;;;;;;;17.67;83.88;98267.00;4924647;29;20059;-66
2021/07/01 03:34:59;;;;;;;14.45;6.97;;;;;;;17.62;84.46;98279.13;4924613;29;20052;-67
2021/07/01 03:37:51;;;;;;;10.93;5.38;;;;;;;17.62;84.55;98270.84;4942468;28;20553;-67
2021/07/01 03:40:30;;;;;;;18.58;7.47;;;;;;;17.86;83.91;98275.31;4925371;29;20058;-68
2021/07/01 03:42:58;;;;;;;14.55;5.20;;;;;;;17.87;83.68;98276.16;4941740;29;20043;-68
2021/07/01 03:45:24;;;;;;;11.93;4.75;;;;;;;18.10;82.90;98276.28;4925054;29;20528;-67
2021/07/01 03:47:51;;;;;;;10.25;4.30;;;;;;;18.21;82.49;98281.25;4908789;29;20138;-67
2021/07/01 03:50:20;;;;;;;23.35;4.35;;;;;;;18.36;81.92;98279.56;4925116;29;20084;-67
2021/07/01 03:53:05;;;;;;;7.28;3.00;;;;;;;18.34;80.50;98279.94;4940551;28;20604;-67
2021/07/01 03:55:34;;;;;;;7.38;3.28;;;;;;;18.62;80.23;98278.09;4940560;29;20129;-67
2021/07/01 03:58:05;;;;;;;10.07;4.00;;;;;;;18.68;80.52;98287.69;4925309;29;20055;-67
2021/07/01 04:00:32;;;;;;;13.52;6.38;;;;;;;18.46;80.97;98273.44;4909996;29;20054;-66
2021/07/01 04:03:02;;;;;;;12.10;5.70;;;;;;;18.39;80.83;98281.59;4908952;29;20057;-66
2021/07/01 04:05:48;;;;;;;15.55;5.25;;;;;;;18.40;81.00;98278.47;4939914;29;20353;-68
2021/07/01 04:08:14;;;;;;;14.38;4.18;;;;;;;18.57;79.89;98281.97;4924616;29;20497;-68
2021/07/01 04:10:50;;;;;;;12.35;5.10;;;;;;;18.64;79.71;98284.84;4941249;29;20142;-67
2021/07/01 04:13:19;;;;;;;11.18;3.85;;;;;;;18.50;80.22;98282.63;4924805;29;20167;-67
2021/07/01 04:16:07;;;;;;;9.02;2.85;;;;;;;18.21;81.34;98279.25;4942028;28;20078;-66
2021/07/01 04:18:54;;;;;;;11.02;2.80;;;;;;;18.34;81.31;98279.94;4941921;29;20062;-67
2021/07/01 04:21:39;;;;;;;8.68;2.63;;;;;;;18.43;80.88;98280.50;4942185;29;20047;-68
2021/07/01 04:24:26;;;;;;;8.27;2.50;;;;;;;18.40;80.38;98277.66;4941682;29;20047;-68
2021/07/01 04:26:58;;;;;;;6.78;2.33;;;;;;;18.47;80.74;98288.06;4908581;29;20049;-67
2021/07/01 04:29:30;;;;;;;11.63;2.78;;;;;;;18.54;80.50;98297.31;4931586;29;20051;-66
2021/07/01 04:31:57;;;;;;;11.70;4.40;;;;;;;18.60;80.11;98288.75;4906992;29;20066;-67
2021/07/01 04:34:24;;;;;;;18.48;8.98;;;;;;;18.65;80.12;98285.66;4941661;29;20133;-67
2021/07/01 04:36:50;;;;;;;12.77;5.80;;;;;;;18.15;81.72;98291.78;4907887;29;20557;-68
2021/07/01 04:39:17;;;;;;;39.33;19.50;;;;;;;18.26;81.96;98295.59;4931122;29;20051;-66
2021/07/01 04:42:00;;;;;;;22.20;11.10;;;;;;;18.09;82.35;98305.09;4941448;29;20078;-66
2021/07/01 04:44:30;;;;;;;27.42;14.27;;;;;;;18.25;82.52;98301.47;4923307;29;20154;-66
2021/07/01 04:46:58;;;;;;;15.75;7.72;;;;;;;18.20;82.67;98299.00;4924559;29;20167;-66
2021/07/01 04:49:25;;;;;;;18.20;8.30;;;;;;;18.14;83.08;98299.28;4924185;29;20065;-68
2021/07/01 04:52:10;;;;;;;13.45;5.43;;;;;;;18.13;83.23;98289.38;4908602;29;20119;-67
2021/07/01 04:54:55;;;;;;;9.15;3.50;;;;;;;18.42;81.37;98280.88;4941580;29;20055;-67
2021/07/01 04:57:40;;;;;;;12.60;5.03;;;;;;;18.43;81.42;98276.94;4941091;29;20051;-67
2021/07/01 05:00:08;;;;;;;10.75;3.83;;;;;;;18.21;82.58;98282.03;4931670;29;20050;-66
2021/07/01 05:02:53;;;;;;;9.05;2.83;;;;;;;18.18;83.12;98281.94;4944938;28;20050;-66
2021/07/01 05:05:24;;;;;;;13.27;6.00;;;;;;;18.30;82.77;98287.34;4927969;29;20091;-66
2021/07/01 05:07:54;;;;;;;25.10;14.57;;;;;;;18.43;82.09;98291.56;4926996;29;20130;-67
2021/07/01 05:10:21;;;;;;;26.60;15.13;;;;;;;18.59;81.35;98287.13;4912061;29;20529;-67
2021/07/01 05:12:53;;;;;;;21.23;12.00;;;;;;;18.60;81.48;98286.75;4911146;29;20999;-66
2021/07/01 05:15:22;;;;;;;13.30;5.87;;;;;;;18.42;81.63;98289.97;4927769;29;20047;-66
2021/07/01 05:17:54;;;;;;;15.70;5.55;;;;;;;18.38;82.18;98291.06;4926928;29;20311;-67
2021/07/01 05:20:20;;;;;;;11.18;5.53;;;;;;;18.47;81.83;98285.31;4911843;29;20079;-68
2021/07/01 05:23:06;;;;;;;13.50;3.30;;;;;;;18.40;81.69;98297.03;4944328;28;20055;-67
2021/07/01 05:26:11;;;;;;;9.82;3.55;;;;;;;18.70;80.47;98279.81;4892402;29;20084;-67
2021/07/01 05:28:55;;;;;;;10.65;3.05;;;;;;;18.80;79.83;98283.94;4893950;29;20140;-67
2021/07/01 05:31:46;;;;;;;6.93;2.97;;;;;;;18.77;79.06;98290.22;4901003;28;20416;-66
2021/07/01 05:34:37;;;;;;;8.02;2.85;;;;;;;18.82;78.84;98292.72;4940880;29;20433;-64
2021/07/01 05:37:04;;;;;;;7.82;2.72;;;;;;;19.03;78.18;98295.06;4910948;29;20059;-65
2021/07/01 05:39:37;;;;;;;7.18;2.70;;;;;;;19.21;77.51;98297.38;4927239;29;20055;-68
2021/07/01 05:42:06;;;;;;;8.30;2.65;;;;;;;19.31;76.93;98290.41;4910822;29;20046;-68
2021/07/01 05:44:33;;;;;;;10.35;2.78;;;;;;;19.57;75.94;98295.19;4910583;29;20075;-67
2021/07/01 05:47:01;;;;;;;7.75;3.10;;;;;;;19.70;75.21;98287.44;4943906;29;20382;-67
2021/07/01 05:49:30;;;;;;;12.15;3.13;;;;;;;19.69;75.47;98297.75;4942825;29;20055;-67
2021/07/01 05:52:00;;;;;;;8.35;2.95;;;;;;;19.61;75.89;98298.81;4944206;29;20057;-66
2021/07/01 05:56:53;;;;;;;7.38;3.05;;;;;;;19.78;75.38;98294.72;4944004;28;20047;-68
2021/07/01 05:59:20;;;;;;;10.95;3.08;;;;;;;19.97;74.54;98301.34;4942971;29;20043;-67
2021/07/01 06:01:46;;;;;;;10.38;3.63;;;;;;;20.03;74.62;98302.59;4943753;29;20450;-67
2021/07/01 06:04:17;;;;;;;8.98;3.05;;;;;;;20.03;74.54;98304.59;4943176;29;20146;-67
2021/07/01 06:07:19;;;;;;;10.43;3.00;;;;;;;19.81;74.69;98302.28;4874684;29;20052;-67
2021/07/01 06:09:48;;;;;;;8.80;2.65;;;;;;;19.69;75.18;98300.53;4873604;29;20587;-67
2021/07/01 06:12:16;;;;;;;7.18;2.30;;;;;;;19.86;75.11;98308.66;4931429;28;20047;-67
2021/07/01 06:14:45;;;;;;;6.72;2.30;;;;;;;19.82;74.72;98303.06;4943262;29;20429;-66
2021/07/01 06:17:17;;;;;;;6.35;2.60;;;;;;;20.06;73.98;98307.44;4942506;28;20063;-68
2021/07/01 06:19:49;;;;;;;8.18;3.03;;;;;;;20.06;74.25;98307.44;4942880;29;20179;-68
2021/07/01 06:22:21;;;;;;;9.75;2.50;;;;;;;20.19;74.16;98309.94;4909774;29;20154;-68
2021/07/01 06:24:54;;;;;;;9.55;2.80;;;;;;;20.35;73.79;98318.09;4943480;29;20090;-67
2021/07/01 06:27:26;;;;;;;7.78;2.50;;;;;;;20.08;74.08;98304.25;4943412;29;20303;-67
2021/07/01 06:29:53;;;;;;;8.27;2.42;;;;;;;20.22;73.63;98329.44;4942396;29;20424;-66
2021/07/01 06:32:19;;;;;;;9.70;2.67;;;;;;;20.23;73.65;98308.03;4942196;29;20134;-65
2021/07/01 06:34:45;;;;;;;8.02;2.25;;;;;;;20.33;73.27;98310.13;4942917;29;20047;-67
2021/07/01 06:37:14;;;;;;;9.70;2.80;;;;;;;20.58;72.21;98308.84;4943060;29;20059;-66
2021/07/01 06:40:00;;;;;;;7.53;2.40;;;;;;;20.70;71.01;98319.69;4942971;29;20505;-67
2021/07/01 06:42:50;;;;;;;6.82;2.35;;;;;;;20.68;71.33;98322.88;4943239;29;20110;-66
2021/07/01 06:45:36;;;;;;;22.70;16.80;;;;;;;20.79;70.95;98324.94;4941940;29;20066;-67
2021/07/01 06:48:22;;;;;;;7.90;2.78;;;;;;;20.69;71.25;98309.78;4941890;29;20056;-67
2021/07/01 06:51:10;;;;;;;7.78;2.70;;;;;;;20.68;70.76;98316.50;4942713;28;20055;-67
2021/07/01 06:53:56;;;;;;;6.03;2.65;;;;;;;21.07;69.74;98316.16;4942751;29;20052;-65
2021/07/01 06:56:43;;;;;;;5.97;2.60;;;;;;;21.18;69.18;98319.03;4939984;28;20111;-64
2021/07/01 06:59:13;;;;;;;5.85;2.38;;;;;;;21.37;68.59;98308.88;4942427;29;20118;-67
2021/07/01 07:01:42;;;;;;;8.68;2.63;;;;;;;21.44;67.88;98314.47;4942910;29;20051;-66
2021/07/01 07:04:10;;;;;;;8.98;2.60;;;;;;;21.50;68.13;98324.09;4925430;29;20070;-66
2021/07/01 07:06:37;;;;;;;8.73;2.58;;;;;;;21.59;67.24;98318.19;4941315;28;20043;-67
2021/07/01 07:09:08;;;;;;;5.93;2.45;;;;;;;21.49;67.19;98316.13;4942451;29;20055;-66
2021/07/01 07:11:37;;;;;;;7.60;2.67;;;;;;;21.67;66.68;98322.63;4942989;28;20053;-67
2021/07/01 07:14:04;;;;;;;7.75;2.80;;;;;;;21.84;65.54;98320.38;4941448;29;20074;-66
2021/07/01 07:16:38;;;;;;;9.43;2.30;;;;;;;21.84;65.63;98327.94;4940929;29;20513;-69
2021/07/01 07:19:06;;;;;;;5.40;2.40;;;;;;;22.03;65.58;98321.31;4940713;29;20391;-67
2021/07/01 07:21:38;;;;;;;12.52;2.67;;;;;;;21.86;66.18;98320.00;4942047;29;20044;-66
2021/07/01 07:24:04;;;;;;;8.45;2.50;;;;;;;21.91;65.62;98319.63;4940973;29;20051;-65
2021/07/01 07:26:37;;;;;;;9.82;2.28;;;;;;;21.77;65.80;98323.91;4942130;29;20055;-68
2021/07/01 07:29:06;;;;;;;6.72;2.55;;;;;;;21.93;65.41;98320.84;4941304;29;20560;-65
2021/07/01 07:31:39;;;;;;;7.43;2.40;;;;;;;22.02;64.95;98322.50;4941749;29;20148;-68
2021/07/01 07:34:05;;;;;;;5.57;2.30;;;;;;;22.19;64.55;98323.75;4941981;29;20055;-67
2021/07/01 07:36:35;;;;;;;7.10;2.20;;;;;;;22.13;64.36;98325.34;4942609;29;20054;-68
2021/07/01 07:39:05;;;;;;;8.45;2.38;;;;;;;22.37;63.89;98321.09;4941526;29;20175;-66
2021/07/01 07:41:32;;;;;;;8.38;2.33;;;;;;;22.49;63.77;98322.75;4908874;29;20059;-67
2021/07/01 07:44:00;;;;;;;9.43;2.58;;;;;;;22.58;63.97;98331.53;4940978;29;20052;-66
2021/07/01 07:46:31;;;;;;;6.22;2.40;;;;;;;22.63;63.49;98330.34;4942324;28;20483;-67
2021/07/01 07:48:57;;;;;;;7.13;2.30;;;;;;;22.63;63.14;98333.13;4941111;29;20055;-67
2021/07/01 07:51:27;;;;;;;6.68;2.47;;;;;;;22.66;62.63;98338.72;4941176;29;20075;-67
2021/07/01 07:54:01;;;;;;;10.77;3.05;;;;;;;22.72;62.51;98339.16;4942166;29;20540;-67
2021/07/01 07:56:39;;;;;;;16.70;3.30;;;;;;;22.52;64.88;98338.66;4941870;29;20098;-67
2021/07/01 07:59:10;;;;;;;10.02;3.50;;;;;;;22.13;66.61;98342.81;4941823;29;20055;-67
2021/07/01 08:01:39;;;;;;;10.40;3.60;;;;;;;22.20;66.89;98350.41;4940770;29;20102;-68
2021/07/01 08:04:12;;;;;;;12.63;3.10;;;;;;;22.31;66.78;98361.59;4942066;29;20051;-68
2021/07/01 08:06:44;;;;;;;9.50;3.47;;;;;;;22.44;65.67;98360.06;4942308;29;20054;-67
2021/07/01 08:09:13;;;;;;;11.80;3.38;;;;;;;22.67;65.10;98356.25;4940485;29;20047;-65
2021/07/01 08:11:42;;;;;;;19.80;4.75;;;;;;;22.84;64.60;98357.47;4941771;29;20303;-67
2021/07/01 08:14:14;;;;;;;12.50;3.20;;;;;;;22.89;64.23;98353.53;4941786;29;20063;-68
2021/07/01 08:16:44;;;;;;;8.00;2.83;;;;;;;23.19;62.73;98360.75;4942290;28;20134;-68
2021/07/01 08:19:10;;;;;;;7.68;2.50;;;;;;;22.76;63.35;98367.81;4939977;29;20044;-68
2021/07/01 08:21:39;;;;;;;4.85;1.95;;;;;;;22.68;62.99;98363.41;4940880;29;20195;-67
2021/07/01 08:24:09;;;;;;;9.25;2.30;;;;;;;22.74;63.40;98363.84;4941075;29;20545;-67
2021/07/01 08:26:36;;;;;;;6.35;2.83;;;;;;;22.50;63.71;98364.13;4941870;28;20079;-68
2021/07/01 08:29:03;;;;;;;12.05;2.67;;;;;;;22.42;64.18;98372.81;4923509;29;20734;-68
2021/07/01 08:31:34;;;;;;;10.70;4.10;;;;;;;22.11;65.55;98375.81;4941596;28;20055;-68
2021/07/01 08:34:08;;;;;;;11.15;3.30;;;;;;;21.83;66.68;98377.19;4941561;29;20048;-67
2021/07/01 08:36:35;;;;;;;11.95;4.15;;;;;;;21.59;68.08;98379.38;4944131;28;20047;-66
2021/07/01 08:39:07;;;;;;;8.73;4.32;;;;;;;21.49;68.51;98385.63;4944164;29;20537;-67
2021/07/01 08:41:42;;;;;;;13.90;4.03;;;;;;;21.22;69.85;98389.34;4945050;28;20047;-67
2021/07/01 08:44:16;;;;;;;15.82;5.40;;;;;;;21.17;70.77;98391.66;4945431;29;20051;-67
2021/07/01 08:46:48;;;;;;;16.02;5.60;;;;;;;21.14;71.23;98392.44;4944378;28;20050;-66
2021/07/01 08:49:31;;;;;;;14.88;5.43;;;;;;;21.21;71.42;98403.59;4945209;29;20139;-66
2021/07/01 08:52:02;;;;;;;13.75;4.47;;;;;;;21.42;70.50;98411.38;4945499;28;20055;-67
2021/07/01 08:54:31;;;;;;;13.32;4.13;;;;;;;21.73;69.35;98409.31;4944634;29;20054;-68
2021/07/01 08:56:58;;;;;;;8.38;3.80;;;;;;;21.85;68.62;98410.19;4943809;28;20053;-65
2021/07/01 08:59:37;;;;;;;8.20;4.03;;;;;;;21.82;68.93;98406.19;4944846;29;20077;-67
2021/07/01 09:02:08;;;;;;;8.75;3.63;;;;;;;21.99;68.27;98403.94;4944328;29;20043;-67
2021/07/01 09:04:48;;;;;;;9.60;3.72;;;;;;;22.33;67.08;98409.34;4942239;29;20059;-67
2021/07/01 09:07:20;;;;;;;10.65;3.60;;;;;;;22.46;65.97;98401.47;4944291;29;20050;-67
2021/07/01 09:09:54;;;;;;;9.43;3.92;;;;;;;22.60;65.53;98411.91;4945226;29;20182;-69
2021/07/01 09:12:25;;;;;;;8.57;3.80;;;;;;;22.75;64.80;98410.00;4944254;28;20051;-67
2021/07/01 09:14:58;;;;;;;10.38;3.80;;;;;;;22.62;65.00;98409.53;4943205;29;20056;-67
2021/07/01 09:17:32;;;;;;;9.43;3.90;;;;;;;22.61;65.99;98405.13;4943765;29;20043;-66
2021/07/01 09:20:00;;;;;;;11.52;4.18;;;;;;;22.60;65.45;98409.13;4944484;29;20051;-67
2021/07/01 09:22:28;;;;;;;8.60;4.00;;;;;;;22.35;65.85;98406.97;4943537;29;20066;-66
2021/07/01 09:24:55;;;;;;;9.50;4.20;;;;;;;22.14;66.04;98405.63;4943765;29;20511;-66
2021/07/01 09:27:23;;;;;;;10.05;4.22;;;;;;;22.46;64.87;98402.25;4944369;28;20162;-66
2021/07/01 09:29:50;;;;;;;12.45;4.45;;;;;;;22.59;64.20;98410.31;4944311;29;20098;-67
2021/07/01 09:32:19;;;;;;;11.55;4.47;;;;;;;22.50;63.85;98399.53;4942849;28;20051;-66
2021/07/01 09:34:49;;;;;;;14.55;4.47;;;;;;;22.55;64.02;98403.94;4942906;29;20151;-67
2021/07/01 09:37:21;;;;;;;11.13;4.22;;;;;;;22.99;62.38;98402.13;4944351;29;20051;-67
2021/07/01 09:39:50;;;;;;;13.57;4.40;;;;;;;22.98;62.23;98408.88;4943434;29;20611;-66
2021/07/01 09:42:16;;;;;;;11.88;4.45;;;;;;;22.77;62.47;98411.19;4943095;28;20129;-66
2021/07/01 09:44:47;;;;;;;11.02;4.40;;;;;;;22.29;62.72;98414.88;4943826;29;20058;-66
2021/07/01 09:47:13;;;;;;;10.35;3.88;;;;;;;22.33;63.07;98421.28;4943367;29;20559;-68
2021/07/01 09:49:41;;;;;;;11.68;4.38;;;;;;;22.38;63.20;98409.75;4943468;29;20095;-66
2021/07/01 09:52:13;;;;;;;10.27;4.50;;;;;;;22.71;61.77;98401.63;4926135;29;20536;-68
2021/07/01 09:54:41;;;;;;;13.65;4.05;;;;;;;23.02;60.31;98418.03;4943040;29;20520;-67
2021/07/01 09:57:09;;;;;;;9.25;3.92;;;;;;;22.85;60.63;98414.78;4943301;29;20494;-67
2021/07/01 09:59:43;;;;;;;9.45;3.70;;;;;;;22.94;61.07;98417.22;4942132;29;20103;-66
2021/07/01 10:02:15;;;;;;;8.93;3.92;;;;;;;22.66;61.43;98413.94;4943139;28;20752;-67
2021/07/01 10:04:45;;;;;;;8.90;3.65;;;;;;;22.36;61.73;98420.50;4943875;29;20070;-67
2021/07/01 10:07:14;;;;;;;8.70;3.95;;;;;;;22.92;60.28;98422.38;4925907;29;20063;-67
2021/07/01 10:09:44;;;;;;;6.13;3.00;;;;;;;22.90;59.77;98424.78;4942435;29;20047;-67
2021/07/01 10:12:16;;;;;;;9.50;3.63;;;;;;;23.13;59.21;98430.03;4943033;28;20043;-69
2021/07/01 10:14:42;;;;;;;7.53;3.50;;;;;;;23.06;58.51;98424.44;4943448;29;20059;-67
2021/07/01 10:17:11;;;;;;;7.95;3.50;;;;;;;22.90;59.00;98425.59;4941990;29;20087;-66
2021/07/01 10:19:41;;;;;;;9.32;3.80;;;;;;;23.01;59.70;98422.81;4943226;29;20456;-67
2021/07/01 10:22:12;;;;;;;12.98;4.45;;;;;;;23.09;59.40;98420.88;4943525;29;20082;-67
2021/07/01 10:24:54;;;;;;;10.07;3.72;;;;;;;23.17;58.76;98441.97;4943491;29;20146;-67
2021/07/01 10:27:31;;;;;;;9.13;2.80;;;;;;;23.45;57.22;98440.50;4942073;28;20121;-67
2021/07/01 10:30:11;;;;;;;6.47;3.10;;;;;;;23.69;55.56;98429.78;4943458;29;20122;-67
2021/07/01 10:32:40;;;;;;;9.77;2.95;;;;;;;23.88;55.61;98444.53;4943436;29;20058;-67
2021/07/01 10:35:24;;;;;;;9.07;3.40;;;;;;;23.81;57.03;98448.13;4941272;29;20051;-67
2021/07/01 10:38:02;;;;;;;7.95;3.50;;;;;;;23.53;57.86;98446.09;4941883;28;20059;-67
2021/07/01 10:40:36;;;;;;;10.48;4.43;;;;;;;23.02;59.32;98454.28;4943215;29;20082;-68
2021/07/01 10:43:03;;;;;;;9.25;3.42;;;;;;;22.90;58.74;98447.06;4943118;29;20055;-66
2021/07/01 10:45:29;;;;;;;8.00;2.95;;;;;;;22.92;58.95;98444.69;4940295;29;20059;-66
2021/07/01 10:48:11;;;;;;;8.85;3.00;;;;;;;23.02;58.48;98449.50;4942172;29;20134;-67
2021/07/01 10:50:42;;;;;;;8.70;2.90;;;;;;;23.49;57.08;98446.09;4943291;29;20150;-66
2021/07/01 10:53:37;;;;;;;8.05;3.35;;;;;;;23.62;57.03;98447.31;4925658;29;20043;-65
2021/07/01 10:56:08;;;;;;;13.23;3.80;;;;;;;23.49;58.09;98449.69;4942175;29;20122;-67
2021/07/01 10:58:38;;;;;;;9.13;3.47;;;;;;;23.32;58.63;98465.16;4908961;29;20060;-67
2021/07/01 11:01:05;;;;;;;9.30;3.20;;;;;;;23.21;58.66;98458.72;4942640;28;20051;-67
2021/07/01 11:03:33;;;;;;;7.40;3.17;;;;;;;23.00;58.97;98462.22;4941038;29;20176;-66
2021/07/01 11:06:01;;;;;;;7.43;3.10;;;;;;;22.74;58.93;98450.19;4942196;28;20070;-67
2021/07/01 11:08:31;;;;;;;7.15;3.08;;;;;;;22.95;58.75;98472.56;4941965;29;20424;-68
2021/07/01 11:10:59;;;;;;;10.27;3.40;;;;;;;23.50;57.46;98464.41;4942351;28;20090;-65
2021/07/01 11:13:28;;;;;;;9.25;3.50;;;;;;;23.74;57.30;98468.44;4940274;29;20566;-66
2021/07/01 11:16:09;;;;;;;12.13;3.53;;;;;;;23.47;57.73;98468.00;4942150;29;20051;-66
2021/07/01 11:18:37;;;;;;;10.50;3.88;;;;;;;23.54;57.52;98465.22;4942334;29;20057;-68
2021/07/01 11:21:15;;;;;;;10.07;3.90;;;;;;;23.66;57.39;98464.06;4941086;29;20417;-66
2021/07/01 11:23:46;;;;;;;11.57;3.45;;;;;;;23.31;57.91;98466.38;4941088;29;20055;-67
2021/07/01 11:26:27;;;;;;;10.23;3.58;;;;;;;23.15;58.57;98465.88;4925082;29;20051;-67
2021/07/01 11:28:55;;;;;;;8.25;3.30;;;;;;;22.75;58.76;98460.91;4942291;29;20052;-68
2021/07/01 11:31:40;;;;;;;8.25;3.00;;;;;;;22.74;58.56;98467.69;4940594;28;20057;-67
2021/07/01 11:34:07;;;;;;;8.90;3.00;;;;;;;22.95;58.58;98469.78;4942609;29;20078;-67
2021/07/01 11:36:33;;;;;;;;;;;;;;;23.17;57.99;98467.06;4942633;29;20051;-67
2021/07/01 11:39:08;;;;;;;10.25;2.97;;;;;;;23.22;57.95;98466.72;4941585;29;19927;-65
2021/07/01 11:41:35;;;;;;;10.07;3.13;;;;;;;23.39;57.85;98466.38;4940306;28;20043;-66
2021/07/01 11:44:06;;;;;;;10.13;3.80;;;;;;;23.50;57.20;98459.66;4942302;29;20474;-68
2021/07/01 11:46:33;;;;;;;15.23;4.32;;;;;;;23.71;57.17;98468.44;4941453;28;20154;-68
2021/07/01 11:49:02;;;;;;;;;;;;;;;23.83;56.41;98470.06;4941641;29;20039;-67
2021/07/01 11:51:31;;;;;;;8.40;3.45;;;;;;;23.58;56.03;98470.81;4942295;29;19980;-67
2021/07/01 11:54:02;;;;;;;7.32;3.03;;;;;;;23.55;55.42;98468.81;4942107;29;20052;-68
2021/07/01 11:56:53;;;;;;;10.13;5.47;;;;;;;23.48;55.48;98470.38;4942312;28;20139;-67
2021/07/01 11:59:21;;;;;;;10.52;3.30;;;;;;;23.54;55.70;98472.78;4941190;29;20051;-68